sensor_id;sensor_type;location;lat;lon;timestamp;P1;durP1;ratioP1;P2;durP2;ratioP2
10511;SDS011;5304;48.604;2.096;2023-02-13T00:01:40;33.20;;;21.43;;
10511;SDS011;5304;48.604;2.096;2023-02-13T00:04:25;34.73;;;20.80;;
10511;SDS011;5304;48.604;2.096;2023-02-13T00:07:11;38.30;;;23.40;;
10511;SDS011;5304;48.604;2.096;2023-02-13T00:09:56;35.53;;;20.73;;
10511;SDS011;5304;48.604;2.096;2023-02-13T00:12:40;33.83;;;20.77;;
10511;SDS011;5304;48.604;2.096;2023-02-13T00:15:25;37.30;;;21.67;;
10511;SDS011;5304;48.604;2.096;2023-02-13T00:18:10;32.80;;;19.73;;
10511;SDS011;5304;48.604;2.096;2023-02-13T00:20:58;36.00;;;20.57;;
10511;SDS011;5304;48.604;2.096;2023-02-13T00:23:44;39.43;;;22.13;;
10511;SDS011;5304;48.604;2.096;2023-02-13T00:26:28;36.30;;;22.30;;
10511;SDS011;5304;48.604;2.096;2023-02-13T00:29:12;43.93;;;25.10;;
10511;SDS011;5304;48.604;2.096;2023-02-13T00:31:57;39.80;;;21.40;;
10511;SDS011;5304;48.604;2.096;2023-02-13T00:34:42;38.10;;;23.93;;
10511;SDS011;5304;48.604;2.096;2023-02-13T00:37:27;40.70;;;22.70;;
10511;SDS011;5304;48.604;2.096;2023-02-13T00:40:12;43.07;;;23.37;;
10511;SDS011;5304;48.604;2.096;2023-02-13T00:42:56;39.73;;;22.17;;
10511;SDS011;5304;48.604;2.096;2023-02-13T00:45:41;44.00;;;25.03;;
10511;SDS011;5304;48.604;2.096;2023-02-13T00:48:26;46.23;;;26.40;;
10511;SDS011;5304;48.604;2.096;2023-02-13T00:51:12;64.53;;;32.20;;
10511;SDS011;5304;48.604;2.096;2023-02-13T00:53:57;55.53;;;30.20;;
10511;SDS011;5304;48.604;2.096;2023-02-13T00:56:41;63.13;;;30.97;;
10511;SDS011;5304;48.604;2.096;2023-02-13T00:59:26;75.03;;;38.63;;
10511;SDS011;5304;48.604;2.096;2023-02-13T01:02:11;102.30;;;46.20;;
10511;SDS011;5304;48.604;2.096;2023-02-13T01:04:56;69.77;;;36.17;;
10511;SDS011;5304;48.604;2.096;2023-02-13T01:07:40;71.07;;;34.70;;
10511;SDS011;5304;48.604;2.096;2023-02-13T01:10:25;51.40;;;26.37;;
10511;SDS011;5304;48.604;2.096;2023-02-13T01:13:10;40.10;;;23.13;;
10511;SDS011;5304;48.604;2.096;2023-02-13T01:15:56;36.13;;;21.50;;
10511;SDS011;5304;48.604;2.096;2023-02-13T01:18:41;39.50;;;22.00;;
10511;SDS011;5304;48.604;2.096;2023-02-13T01:21:25;43.27;;;21.40;;
10511;SDS011;5304;48.604;2.096;2023-02-13T01:24:10;33.23;;;20.63;;
10511;SDS011;5304;48.604;2.096;2023-02-13T01:26:54;36.33;;;21.37;;
10511;SDS011;5304;48.604;2.096;2023-02-13T01:29:39;35.97;;;20.67;;
10511;SDS011;5304;48.604;2.096;2023-02-13T01:32:24;34.97;;;20.47;;
10511;SDS011;5304;48.604;2.096;2023-02-13T01:35:09;40.07;;;20.90;;
10511;SDS011;5304;48.604;2.096;2023-02-13T01:37:54;34.07;;;18.60;;
10511;SDS011;5304;48.604;2.096;2023-02-13T01:40:49;39.20;;;21.63;;
10511;SDS011;5304;48.604;2.096;2023-02-13T01:43:47;35.70;;;20.43;;
10511;SDS011;5304;48.604;2.096;2023-02-13T01:46:34;34.57;;;19.27;;
10511;SDS011;5304;48.604;2.096;2023-02-13T01:49:22;37.03;;;20.20;;
10511;SDS011;5304;48.604;2.096;2023-02-13T01:52:08;36.30;;;21.17;;
10511;SDS011;5304;48.604;2.096;2023-02-13T01:54:55;31.57;;;18.07;;
10511;SDS011;5304;48.604;2.096;2023-02-13T01:57:39;32.30;;;19.20;;
10511;SDS011;5304;48.604;2.096;2023-02-13T02:00:27;33.53;;;19.07;;
10511;SDS011;5304;48.604;2.096;2023-02-13T02:03:13;32.50;;;17.70;;
10511;SDS011;5304;48.604;2.096;2023-02-13T02:06:06;29.80;;;17.93;;
10511;SDS011;5304;48.604;2.096;2023-02-13T02:08:56;29.83;;;17.67;;
10511;SDS011;5304;48.604;2.096;2023-02-13T02:11:54;32.57;;;18.43;;
10511;SDS011;5304;48.604;2.096;2023-02-13T02:14:40;27.77;;;16.83;;
10511;SDS011;5304;48.604;2.096;2023-02-13T02:17:26;30.23;;;17.10;;
10511;SDS011;5304;48.604;2.096;2023-02-13T02:36:21;33.47;;;18.37;;
10511;SDS011;5304;48.604;2.096;2023-02-13T02:39:53;29.93;;;16.40;;
10511;SDS011;5304;48.604;2.096;2023-02-13T02:45:55;29.77;;;16.53;;
10511;SDS011;5304;48.604;2.096;2023-02-13T02:52:05;28.47;;;16.43;;
10511;SDS011;5304;48.604;2.096;2023-02-13T02:55:07;30.30;;;16.27;;
10511;SDS011;5304;48.604;2.096;2023-02-13T02:58:19;26.07;;;15.60;;
10511;SDS011;5304;48.604;2.096;2023-02-13T03:01:27;28.70;;;16.87;;
10511;SDS011;5304;48.604;2.096;2023-02-13T03:04:37;28.07;;;16.80;;
10511;SDS011;5304;48.604;2.096;2023-02-13T03:07:44;26.57;;;15.13;;
10511;SDS011;5304;48.604;2.096;2023-02-13T03:10:30;29.40;;;15.60;;
10511;SDS011;5304;48.604;2.096;2023-02-13T03:13:41;31.27;;;16.60;;
10511;SDS011;5304;48.604;2.096;2023-02-13T03:16:30;31.63;;;17.37;;
10511;SDS011;5304;48.604;2.096;2023-02-13T03:19:42;30.83;;;17.77;;
10511;SDS011;5304;48.604;2.096;2023-02-13T03:32:29;43.90;;;24.20;;
10511;SDS011;5304;48.604;2.096;2023-02-13T03:38:41;157.83;;;70.03;;
10511;SDS011;5304;48.604;2.096;2023-02-13T03:41:33;123.87;;;57.97;;
10511;SDS011;5304;48.604;2.096;2023-02-13T03:47:53;50.33;;;29.07;;
10511;SDS011;5304;48.604;2.096;2023-02-13T03:50:40;36.87;;;20.33;;
10511;SDS011;5304;48.604;2.096;2023-02-13T03:53:27;26.83;;;16.37;;
10511;SDS011;5304;48.604;2.096;2023-02-13T03:56:14;25.20;;;15.37;;
10511;SDS011;5304;48.604;2.096;2023-02-13T03:59:25;31.53;;;17.27;;
10511;SDS011;5304;48.604;2.096;2023-02-13T04:02:18;31.17;;;15.90;;
10511;SDS011;5304;48.604;2.096;2023-02-13T04:05:10;34.53;;;17.93;;
10511;SDS011;5304;48.604;2.096;2023-02-13T04:07:59;26.50;;;15.27;;
10511;SDS011;5304;48.604;2.096;2023-02-13T04:10:56;35.23;;;19.10;;
10511;SDS011;5304;48.604;2.096;2023-02-13T04:14:16;35.33;;;17.43;;
10511;SDS011;5304;48.604;2.096;2023-02-13T04:17:09;33.73;;;20.07;;
10511;SDS011;5304;48.604;2.096;2023-02-13T04:19:58;33.80;;;17.40;;
10511;SDS011;5304;48.604;2.096;2023-02-13T04:22:44;35.37;;;19.57;;
10511;SDS011;5304;48.604;2.096;2023-02-13T04:25:30;34.20;;;19.53;;
10511;SDS011;5304;48.604;2.096;2023-02-13T04:28:14;33.73;;;19.27;;
10511;SDS011;5304;48.604;2.096;2023-02-13T04:30:59;32.83;;;17.40;;
10511;SDS011;5304;48.604;2.096;2023-02-13T04:33:44;31.30;;;18.40;;
10511;SDS011;5304;48.604;2.096;2023-02-13T04:36:29;29.60;;;16.87;;
10511;SDS011;5304;48.604;2.096;2023-02-13T04:39:13;31.23;;;16.07;;
10511;SDS011;5304;48.604;2.096;2023-02-13T04:41:58;26.43;;;15.37;;
10511;SDS011;5304;48.604;2.096;2023-02-13T04:44:43;29.03;;;15.90;;
10511;SDS011;5304;48.604;2.096;2023-02-13T04:47:27;25.77;;;14.70;;
10511;SDS011;5304;48.604;2.096;2023-02-13T04:50:12;26.43;;;14.97;;
10511;SDS011;5304;48.604;2.096;2023-02-13T04:52:57;27.73;;;14.90;;
10511;SDS011;5304;48.604;2.096;2023-02-13T04:55:42;26.37;;;15.00;;
10511;SDS011;5304;48.604;2.096;2023-02-13T04:58:26;33.20;;;15.80;;
10511;SDS011;5304;48.604;2.096;2023-02-13T05:01:11;27.60;;;15.43;;
10511;SDS011;5304;48.604;2.096;2023-02-13T05:03:57;30.70;;;16.23;;
10511;SDS011;5304;48.604;2.096;2023-02-13T05:06:41;28.57;;;15.80;;
10511;SDS011;5304;48.604;2.096;2023-02-13T05:09:26;33.17;;;16.73;;
10511;SDS011;5304;48.604;2.096;2023-02-13T05:12:11;30.17;;;16.63;;
10511;SDS011;5304;48.604;2.096;2023-02-13T05:14:55;32.53;;;17.23;;
10511;SDS011;5304;48.604;2.096;2023-02-13T05:17:42;33.83;;;17.17;;
10511;SDS011;5304;48.604;2.096;2023-02-13T05:20:27;31.70;;;17.27;;
10511;SDS011;5304;48.604;2.096;2023-02-13T05:23:12;44.93;;;23.23;;
10511;SDS011;5304;48.604;2.096;2023-02-13T05:26:06;32.70;;;19.23;;
10511;SDS011;5304;48.604;2.096;2023-02-13T05:28:51;34.00;;;18.47;;
10511;SDS011;5304;48.604;2.096;2023-02-13T05:31:55;29.50;;;16.70;;
10511;SDS011;5304;48.604;2.096;2023-02-13T05:34:41;50.00;;;23.07;;
10511;SDS011;5304;48.604;2.096;2023-02-13T05:37:25;38.47;;;20.13;;
10511;SDS011;5304;48.604;2.096;2023-02-13T05:40:10;35.77;;;17.57;;
10511;SDS011;5304;48.604;2.096;2023-02-13T05:42:56;30.13;;;16.57;;
10511;SDS011;5304;48.604;2.096;2023-02-13T05:45:41;28.13;;;15.60;;
10511;SDS011;5304;48.604;2.096;2023-02-13T05:48:25;34.50;;;17.13;;
10511;SDS011;5304;48.604;2.096;2023-02-13T05:51:09;31.53;;;17.27;;
10511;SDS011;5304;48.604;2.096;2023-02-13T05:53:54;32.13;;;17.50;;
10511;SDS011;5304;48.604;2.096;2023-02-13T05:56:38;31.63;;;17.00;;
10511;SDS011;5304;48.604;2.096;2023-02-13T05:59:23;28.23;;;16.47;;
10511;SDS011;5304;48.604;2.096;2023-02-13T06:02:07;30.63;;;16.67;;
10511;SDS011;5304;48.604;2.096;2023-02-13T06:04:52;55.23;;;24.43;;
10511;SDS011;5304;48.604;2.096;2023-02-13T06:07:37;43.23;;;21.73;;
10511;SDS011;5304;48.604;2.096;2023-02-13T06:10:21;40.40;;;19.93;;
10511;SDS011;5304;48.604;2.096;2023-02-13T06:13:05;42.07;;;20.17;;
10511;SDS011;5304;48.604;2.096;2023-02-13T06:15:50;44.43;;;20.47;;
10511;SDS011;5304;48.604;2.096;2023-02-13T06:18:35;43.03;;;21.30;;
10511;SDS011;5304;48.604;2.096;2023-02-13T06:21:20;39.43;;;20.43;;
10511;SDS011;5304;48.604;2.096;2023-02-13T06:24:04;43.40;;;21.00;;
10511;SDS011;5304;48.604;2.096;2023-02-13T06:26:49;46.33;;;22.77;;
10511;SDS011;5304;48.604;2.096;2023-02-13T06:29:34;40.03;;;19.93;;
10511;SDS011;5304;48.604;2.096;2023-02-13T06:32:19;45.77;;;21.87;;
10511;SDS011;5304;48.604;2.096;2023-02-13T06:35:04;38.57;;;20.30;;
10511;SDS011;5304;48.604;2.096;2023-02-13T06:37:49;44.00;;;21.33;;
10511;SDS011;5304;48.604;2.096;2023-02-13T06:40:33;35.93;;;20.20;;
10511;SDS011;5304;48.604;2.096;2023-02-13T06:43:18;43.07;;;21.40;;
10511;SDS011;5304;48.604;2.096;2023-02-13T06:46:03;41.57;;;20.73;;
10511;SDS011;5304;48.604;2.096;2023-02-13T06:48:48;41.70;;;21.33;;
10511;SDS011;5304;48.604;2.096;2023-02-13T06:51:33;37.93;;;20.10;;
10511;SDS011;5304;48.604;2.096;2023-02-13T06:54:18;43.27;;;21.07;;
10511;SDS011;5304;48.604;2.096;2023-02-13T06:57:02;49.63;;;23.07;;
10511;SDS011;5304;48.604;2.096;2023-02-13T06:59:47;44.13;;;22.43;;
10511;SDS011;5304;48.604;2.096;2023-02-13T07:02:32;52.90;;;24.03;;
10511;SDS011;5304;48.604;2.096;2023-02-13T07:05:16;47.53;;;23.17;;
10511;SDS011;5304;48.604;2.096;2023-02-13T07:08:01;47.30;;;24.13;;
10511;SDS011;5304;48.604;2.096;2023-02-13T07:10:46;47.87;;;24.07;;
10511;SDS011;5304;48.604;2.096;2023-02-13T07:13:30;63.80;;;24.50;;
10511;SDS011;5304;48.604;2.096;2023-02-13T07:16:15;47.97;;;23.80;;
10511;SDS011;5304;48.604;2.096;2023-02-13T07:18:59;44.83;;;23.53;;
10511;SDS011;5304;48.604;2.096;2023-02-13T07:21:44;39.30;;;23.40;;
10511;SDS011;5304;48.604;2.096;2023-02-13T07:24:29;46.47;;;22.90;;
10511;SDS011;5304;48.604;2.096;2023-02-13T07:27:14;46.33;;;23.57;;
10511;SDS011;5304;48.604;2.096;2023-02-13T07:29:58;47.97;;;22.97;;
10511;SDS011;5304;48.604;2.096;2023-02-13T07:32:43;49.87;;;25.87;;
10511;SDS011;5304;48.604;2.096;2023-02-13T07:35:28;44.57;;;26.47;;
10511;SDS011;5304;48.604;2.096;2023-02-13T07:38:12;47.70;;;23.07;;
10511;SDS011;5304;48.604;2.096;2023-02-13T07:40:58;48.13;;;24.93;;
10511;SDS011;5304;48.604;2.096;2023-02-13T07:43:42;51.33;;;26.37;;
10511;SDS011;5304;48.604;2.096;2023-02-13T07:46:27;52.83;;;25.20;;
10511;SDS011;5304;48.604;2.096;2023-02-13T07:49:11;41.03;;;23.87;;
10511;SDS011;5304;48.604;2.096;2023-02-13T07:51:56;50.90;;;24.57;;
10511;SDS011;5304;48.604;2.096;2023-02-13T07:54:44;46.60;;;24.63;;
10511;SDS011;5304;48.604;2.096;2023-02-13T07:57:31;47.57;;;23.20;;
10511;SDS011;5304;48.604;2.096;2023-02-13T08:00:16;46.50;;;24.23;;
10511;SDS011;5304;48.604;2.096;2023-02-13T08:03:01;59.20;;;28.60;;
10511;SDS011;5304;48.604;2.096;2023-02-13T08:05:46;70.10;;;34.43;;
10511;SDS011;5304;48.604;2.096;2023-02-13T08:08:32;69.17;;;27.77;;
10511;SDS011;5304;48.604;2.096;2023-02-13T08:11:27;68.90;;;27.87;;
10511;SDS011;5304;48.604;2.096;2023-02-13T08:14:34;51.07;;;25.37;;
10511;SDS011;5304;48.604;2.096;2023-02-13T08:17:19;55.30;;;24.90;;
10511;SDS011;5304;48.604;2.096;2023-02-13T08:20:04;70.20;;;25.50;;
10511;SDS011;5304;48.604;2.096;2023-02-13T08:22:53;67.00;;;23.67;;
10511;SDS011;5304;48.604;2.096;2023-02-13T08:25:38;48.93;;;23.13;;
10511;SDS011;5304;48.604;2.096;2023-02-13T08:28:22;51.07;;;24.40;;
10511;SDS011;5304;48.604;2.096;2023-02-13T08:31:10;56.90;;;22.97;;
10511;SDS011;5304;48.604;2.096;2023-02-13T08:33:55;52.67;;;24.03;;
10511;SDS011;5304;48.604;2.096;2023-02-13T08:36:40;49.23;;;24.53;;
10511;SDS011;5304;48.604;2.096;2023-02-13T08:39:25;76.03;;;24.97;;
10511;SDS011;5304;48.604;2.096;2023-02-13T08:42:10;63.63;;;25.10;;
10511;SDS011;5304;48.604;2.096;2023-02-13T08:44:54;86.37;;;25.00;;
10511;SDS011;5304;48.604;2.096;2023-02-13T08:47:39;89.17;;;25.23;;
10511;SDS011;5304;48.604;2.096;2023-02-13T08:50:23;75.90;;;25.80;;
10511;SDS011;5304;48.604;2.096;2023-02-13T08:53:08;60.77;;;23.80;;
10511;SDS011;5304;48.604;2.096;2023-02-13T08:55:53;67.27;;;23.43;;
10511;SDS011;5304;48.604;2.096;2023-02-13T08:58:38;73.30;;;21.57;;
10511;SDS011;5304;48.604;2.096;2023-02-13T09:01:23;60.33;;;22.30;;
10511;SDS011;5304;48.604;2.096;2023-02-13T09:04:08;65.53;;;24.70;;
10511;SDS011;5304;48.604;2.096;2023-02-13T09:06:52;66.40;;;24.77;;
10511;SDS011;5304;48.604;2.096;2023-02-13T09:09:36;83.80;;;25.27;;
10511;SDS011;5304;48.604;2.096;2023-02-13T09:12:21;65.13;;;24.60;;
10511;SDS011;5304;48.604;2.096;2023-02-13T09:15:06;71.63;;;26.67;;
10511;SDS011;5304;48.604;2.096;2023-02-13T09:17:51;52.60;;;25.87;;
10511;SDS011;5304;48.604;2.096;2023-02-13T09:20:35;88.27;;;28.30;;
10511;SDS011;5304;48.604;2.096;2023-02-13T09:23:20;104.00;;;27.47;;
10511;SDS011;5304;48.604;2.096;2023-02-13T09:26:05;68.30;;;26.23;;
10511;SDS011;5304;48.604;2.096;2023-02-13T09:28:52;74.73;;;29.60;;
10511;SDS011;5304;48.604;2.096;2023-02-13T09:31:36;62.17;;;27.63;;
10511;SDS011;5304;48.604;2.096;2023-02-13T09:34:21;56.17;;;25.87;;
10511;SDS011;5304;48.604;2.096;2023-02-13T09:37:05;65.13;;;27.10;;
10511;SDS011;5304;48.604;2.096;2023-02-13T09:39:50;75.87;;;26.27;;
10511;SDS011;5304;48.604;2.096;2023-02-13T09:42:34;56.20;;;26.50;;
10511;SDS011;5304;48.604;2.096;2023-02-13T09:45:19;45.27;;;23.73;;
10511;SDS011;5304;48.604;2.096;2023-02-13T09:48:05;112.43;;;25.80;;
10511;SDS011;5304;48.604;2.096;2023-02-13T09:50:57;72.57;;;26.43;;
10511;SDS011;5304;48.604;2.096;2023-02-13T09:53:45;56.47;;;27.07;;
10511;SDS011;5304;48.604;2.096;2023-02-13T10:05:42;63.40;;;23.40;;
10511;SDS011;5304;48.604;2.096;2023-02-13T10:09:08;55.23;;;24.73;;
10511;SDS011;5304;48.604;2.096;2023-02-13T10:25:00;46.97;;;24.40;;
10511;SDS011;5304;48.604;2.096;2023-02-13T10:27:57;41.90;;;24.17;;
10511;SDS011;5304;48.604;2.096;2023-02-13T10:30:58;47.23;;;23.57;;
10511;SDS011;5304;48.604;2.096;2023-02-13T10:33:52;45.13;;;24.43;;
10511;SDS011;5304;48.604;2.096;2023-02-13T10:36:45;46.07;;;24.13;;
10511;SDS011;5304;48.604;2.096;2023-02-13T10:39:30;39.67;;;21.63;;
10511;SDS011;5304;48.604;2.096;2023-02-13T10:42:21;38.93;;;22.43;;
10511;SDS011;5304;48.604;2.096;2023-02-13T10:49:03;32.67;;;19.90;;
10511;SDS011;5304;48.604;2.096;2023-02-13T11:01:36;31.10;;;19.40;;
10511;SDS011;5304;48.604;2.096;2023-02-13T11:04:27;36.33;;;22.10;;
10511;SDS011;5304;48.604;2.096;2023-02-13T11:07:14;32.00;;;19.50;;
10511;SDS011;5304;48.604;2.096;2023-02-13T11:10:03;34.90;;;20.67;;
10511;SDS011;5304;48.604;2.096;2023-02-13T11:12:57;36.83;;;21.23;;
10511;SDS011;5304;48.604;2.096;2023-02-13T11:16:06;37.10;;;21.97;;
10511;SDS011;5304;48.604;2.096;2023-02-13T11:18:52;36.57;;;22.77;;
10511;SDS011;5304;48.604;2.096;2023-02-13T11:21:37;39.40;;;23.23;;
10511;SDS011;5304;48.604;2.096;2023-02-13T11:24:23;42.77;;;23.17;;
10511;SDS011;5304;48.604;2.096;2023-02-13T11:27:09;37.87;;;22.47;;
10511;SDS011;5304;48.604;2.096;2023-02-13T11:29:57;41.23;;;23.17;;
10511;SDS011;5304;48.604;2.096;2023-02-13T11:32:44;40.10;;;24.33;;
10511;SDS011;5304;48.604;2.096;2023-02-13T11:35:41;38.57;;;22.73;;
10511;SDS011;5304;48.604;2.096;2023-02-13T11:38:26;34.70;;;22.27;;
10511;SDS011;5304;48.604;2.096;2023-02-13T11:41:13;36.60;;;22.43;;
10511;SDS011;5304;48.604;2.096;2023-02-13T11:44:01;36.73;;;23.73;;
10511;SDS011;5304;48.604;2.096;2023-02-13T11:46:48;35.07;;;22.20;;
10511;SDS011;5304;48.604;2.096;2023-02-13T11:49:37;35.27;;;21.90;;
10511;SDS011;5304;48.604;2.096;2023-02-13T11:52:26;32.90;;;21.53;;
10511;SDS011;5304;48.604;2.096;2023-02-13T11:55:29;33.23;;;22.03;;
10511;SDS011;5304;48.604;2.096;2023-02-13T11:58:23;31.93;;;22.10;;
10511;SDS011;5304;48.604;2.096;2023-02-13T12:06:59;33.83;;;21.97;;
10511;SDS011;5304;48.604;2.096;2023-02-13T12:09:46;32.03;;;20.27;;
10511;SDS011;5304;48.604;2.096;2023-02-13T12:12:43;32.97;;;19.73;;
10511;SDS011;5304;48.604;2.096;2023-02-13T12:15:31;29.37;;;19.53;;
10511;SDS011;5304;48.604;2.096;2023-02-13T12:21:42;27.43;;;19.43;;
10511;SDS011;5304;48.604;2.096;2023-02-13T12:31:09;26.60;;;19.50;;
10511;SDS011;5304;48.604;2.096;2023-02-13T12:52:13;27.03;;;18.20;;
10511;SDS011;5304;48.604;2.096;2023-02-13T13:01:06;26.17;;;18.53;;
10511;SDS011;5304;48.604;2.096;2023-02-13T13:04:18;28.17;;;19.07;;
10511;SDS011;5304;48.604;2.096;2023-02-13T13:07:35;27.23;;;18.87;;
10511;SDS011;5304;48.604;2.096;2023-02-13T13:10:42;27.13;;;18.83;;
10511;SDS011;5304;48.604;2.096;2023-02-13T13:14:04;26.70;;;19.33;;
10511;SDS011;5304;48.604;2.096;2023-02-13T13:20:51;24.53;;;18.37;;
10511;SDS011;5304;48.604;2.096;2023-02-13T13:26:46;27.37;;;18.93;;
10511;SDS011;5304;48.604;2.096;2023-02-13T13:32:20;25.97;;;19.40;;
10511;SDS011;5304;48.604;2.096;2023-02-13T13:35:11;26.03;;;18.50;;
10511;SDS011;5304;48.604;2.096;2023-02-13T13:38:01;25.23;;;18.43;;
10511;SDS011;5304;48.604;2.096;2023-02-13T13:41:01;26.07;;;18.93;;
10511;SDS011;5304;48.604;2.096;2023-02-13T13:47:10;27.63;;;19.77;;
10511;SDS011;5304;48.604;2.096;2023-02-13T13:50:19;28.20;;;20.10;;
10511;SDS011;5304;48.604;2.096;2023-02-13T13:53:11;24.73;;;18.43;;
10511;SDS011;5304;48.604;2.096;2023-02-13T13:56:05;27.77;;;19.53;;
10511;SDS011;5304;48.604;2.096;2023-02-13T13:58:52;27.67;;;18.97;;
10511;SDS011;5304;48.604;2.096;2023-02-13T14:01:39;25.83;;;19.23;;
10511;SDS011;5304;48.604;2.096;2023-02-13T14:07:22;29.73;;;20.33;;
10511;SDS011;5304;48.604;2.096;2023-02-13T14:13:12;26.37;;;19.13;;
10511;SDS011;5304;48.604;2.096;2023-02-13T14:25:03;25.90;;;19.10;;
10511;SDS011;5304;48.604;2.096;2023-02-13T14:27:59;28.73;;;21.10;;
10511;SDS011;5304;48.604;2.096;2023-02-13T14:30:46;26.17;;;19.37;;
10511;SDS011;5304;48.604;2.096;2023-02-13T14:33:33;26.60;;;19.37;;
10511;SDS011;5304;48.604;2.096;2023-02-13T14:36:22;26.33;;;18.77;;
10511;SDS011;5304;48.604;2.096;2023-02-13T14:39:27;26.40;;;20.23;;
10511;SDS011;5304;48.604;2.096;2023-02-13T14:45:30;29.37;;;20.53;;
10511;SDS011;5304;48.604;2.096;2023-02-13T14:48:18;25.23;;;18.33;;
10511;SDS011;5304;48.604;2.096;2023-02-13T14:51:04;24.57;;;18.40;;
10511;SDS011;5304;48.604;2.096;2023-02-13T14:53:51;30.60;;;20.60;;
10511;SDS011;5304;48.604;2.096;2023-02-13T14:56:40;32.07;;;21.13;;
10511;SDS011;5304;48.604;2.096;2023-02-13T14:59:29;30.47;;;20.73;;
10511;SDS011;5304;48.604;2.096;2023-02-13T15:02:29;25.50;;;18.73;;
10511;SDS011;5304;48.604;2.096;2023-02-13T15:05:18;24.33;;;19.10;;
10511;SDS011;5304;48.604;2.096;2023-02-13T15:10:52;25.63;;;18.87;;
10511;SDS011;5304;48.604;2.096;2023-02-13T15:13:38;29.33;;;19.13;;
10511;SDS011;5304;48.604;2.096;2023-02-13T15:16:23;25.53;;;19.67;;
10511;SDS011;5304;48.604;2.096;2023-02-13T15:19:16;27.63;;;19.40;;
10511;SDS011;5304;48.604;2.096;2023-02-13T15:22:03;28.50;;;19.00;;
10511;SDS011;5304;48.604;2.096;2023-02-13T15:24:49;26.77;;;20.50;;
10511;SDS011;5304;48.604;2.096;2023-02-13T15:27:38;27.83;;;19.17;;
10511;SDS011;5304;48.604;2.096;2023-02-13T15:30:26;25.97;;;19.10;;
10511;SDS011;5304;48.604;2.096;2023-02-13T15:33:18;23.50;;;17.73;;
10511;SDS011;5304;48.604;2.096;2023-02-13T15:36:04;23.07;;;16.80;;
10511;SDS011;5304;48.604;2.096;2023-02-13T15:38:57;21.43;;;14.93;;
10511;SDS011;5304;48.604;2.096;2023-02-13T15:41:48;21.57;;;15.40;;
10511;SDS011;5304;48.604;2.096;2023-02-13T15:44:34;20.23;;;14.07;;
10511;SDS011;5304;48.604;2.096;2023-02-13T15:47:25;21.70;;;15.40;;
10511;SDS011;5304;48.604;2.096;2023-02-13T15:50:32;21.50;;;15.87;;
10511;SDS011;5304;48.604;2.096;2023-02-13T15:53:19;20.73;;;15.20;;
10511;SDS011;5304;48.604;2.096;2023-02-13T15:56:04;22.17;;;14.53;;
10511;SDS011;5304;48.604;2.096;2023-02-13T15:58:49;21.50;;;15.73;;
10511;SDS011;5304;48.604;2.096;2023-02-13T16:01:35;23.13;;;16.97;;
10511;SDS011;5304;48.604;2.096;2023-02-13T16:04:19;23.63;;;16.40;;
10511;SDS011;5304;48.604;2.096;2023-02-13T16:07:07;22.93;;;16.10;;
10511;SDS011;5304;48.604;2.096;2023-02-13T16:10:13;23.37;;;16.03;;
10511;SDS011;5304;48.604;2.096;2023-02-13T16:13:15;24.50;;;16.47;;
10511;SDS011;5304;48.604;2.096;2023-02-13T16:16:02;24.57;;;18.03;;
10511;SDS011;5304;48.604;2.096;2023-02-13T16:18:52;28.60;;;19.13;;
10511;SDS011;5304;48.604;2.096;2023-02-13T16:21:37;31.50;;;19.83;;
10511;SDS011;5304;48.604;2.096;2023-02-13T16:24:22;28.63;;;19.87;;
10511;SDS011;5304;48.604;2.096;2023-02-13T16:27:11;28.57;;;20.57;;
10511;SDS011;5304;48.604;2.096;2023-02-13T16:29:58;32.40;;;21.47;;
10511;SDS011;5304;48.604;2.096;2023-02-13T16:32:44;31.90;;;21.27;;
10511;SDS011;5304;48.604;2.096;2023-02-13T16:35:29;31.80;;;21.63;;
10511;SDS011;5304;48.604;2.096;2023-02-13T16:38:24;35.93;;;23.00;;
10511;SDS011;5304;48.604;2.096;2023-02-13T16:44:02;30.63;;;21.03;;
10511;SDS011;5304;48.604;2.096;2023-02-13T16:49:46;29.97;;;21.37;;
10511;SDS011;5304;48.604;2.096;2023-02-13T16:52:36;30.00;;;20.90;;
10511;SDS011;5304;48.604;2.096;2023-02-13T16:55:21;28.23;;;20.97;;
10511;SDS011;5304;48.604;2.096;2023-02-13T16:58:05;30.07;;;20.97;;
10511;SDS011;5304;48.604;2.096;2023-02-13T17:00:50;30.90;;;19.80;;
10511;SDS011;5304;48.604;2.096;2023-02-13T17:03:34;31.27;;;21.37;;
10511;SDS011;5304;48.604;2.096;2023-02-13T17:06:18;32.93;;;21.63;;
10511;SDS011;5304;48.604;2.096;2023-02-13T17:09:03;33.23;;;20.40;;
10511;SDS011;5304;48.604;2.096;2023-02-13T17:11:51;31.47;;;20.63;;
10511;SDS011;5304;48.604;2.096;2023-02-13T17:14:36;34.27;;;21.70;;
10511;SDS011;5304;48.604;2.096;2023-02-13T17:17:21;32.50;;;21.10;;
10511;SDS011;5304;48.604;2.096;2023-02-13T17:20:06;29.77;;;20.93;;
10511;SDS011;5304;48.604;2.096;2023-02-13T17:22:52;33.53;;;22.67;;
10511;SDS011;5304;48.604;2.096;2023-02-13T17:25:38;31.70;;;21.17;;
10511;SDS011;5304;48.604;2.096;2023-02-13T17:28:24;33.67;;;22.57;;
10511;SDS011;5304;48.604;2.096;2023-02-13T17:31:11;31.57;;;20.63;;
10511;SDS011;5304;48.604;2.096;2023-02-13T17:33:56;32.50;;;21.40;;
10511;SDS011;5304;48.604;2.096;2023-02-13T17:36:41;32.60;;;21.83;;
10511;SDS011;5304;48.604;2.096;2023-02-13T17:39:25;32.47;;;21.83;;
10511;SDS011;5304;48.604;2.096;2023-02-13T17:42:13;31.93;;;21.53;;
10511;SDS011;5304;48.604;2.096;2023-02-13T17:45:00;33.93;;;21.03;;
10511;SDS011;5304;48.604;2.096;2023-02-13T17:47:45;31.23;;;20.80;;
10511;SDS011;5304;48.604;2.096;2023-02-13T17:50:30;32.83;;;20.80;;
10511;SDS011;5304;48.604;2.096;2023-02-13T17:53:23;35.50;;;20.57;;
10511;SDS011;5304;48.604;2.096;2023-02-13T17:56:09;38.87;;;24.77;;
10511;SDS011;5304;48.604;2.096;2023-02-13T17:58:53;36.93;;;23.80;;
10511;SDS011;5304;48.604;2.096;2023-02-13T18:01:38;45.23;;;27.27;;
10511;SDS011;5304;48.604;2.096;2023-02-13T18:04:22;45.40;;;27.47;;
10511;SDS011;5304;48.604;2.096;2023-02-13T18:07:08;36.83;;;24.33;;
10511;SDS011;5304;48.604;2.096;2023-02-13T18:09:53;38.83;;;23.77;;
10511;SDS011;5304;48.604;2.096;2023-02-13T18:12:38;36.40;;;23.63;;
10511;SDS011;5304;48.604;2.096;2023-02-13T18:15:22;38.67;;;24.47;;
10511;SDS011;5304;48.604;2.096;2023-02-13T18:18:07;45.90;;;26.10;;
10511;SDS011;5304;48.604;2.096;2023-02-13T18:20:55;45.90;;;27.47;;
10511;SDS011;5304;48.604;2.096;2023-02-13T18:23:40;42.47;;;26.47;;
10511;SDS011;5304;48.604;2.096;2023-02-13T18:26:24;39.93;;;25.53;;
10511;SDS011;5304;48.604;2.096;2023-02-13T18:29:09;44.60;;;25.40;;
10511;SDS011;5304;48.604;2.096;2023-02-13T18:31:54;41.60;;;24.97;;
10511;SDS011;5304;48.604;2.096;2023-02-13T18:34:39;39.07;;;25.27;;
10511;SDS011;5304;48.604;2.096;2023-02-13T18:37:24;39.40;;;24.90;;
10511;SDS011;5304;48.604;2.096;2023-02-13T18:40:12;40.60;;;24.97;;
10511;SDS011;5304;48.604;2.096;2023-02-13T18:43:00;42.03;;;26.00;;
10511;SDS011;5304;48.604;2.096;2023-02-13T18:45:44;42.80;;;25.27;;
10511;SDS011;5304;48.604;2.096;2023-02-13T18:48:30;42.90;;;26.30;;
10511;SDS011;5304;48.604;2.096;2023-02-13T18:51:15;41.47;;;24.50;;
10511;SDS011;5304;48.604;2.096;2023-02-13T18:53:59;42.60;;;24.73;;
10511;SDS011;5304;48.604;2.096;2023-02-13T18:56:44;41.23;;;24.30;;
10511;SDS011;5304;48.604;2.096;2023-02-13T18:59:28;44.13;;;26.87;;
10511;SDS011;5304;48.604;2.096;2023-02-13T19:02:13;40.73;;;26.23;;
10511;SDS011;5304;48.604;2.096;2023-02-13T19:04:57;42.40;;;25.17;;
10511;SDS011;5304;48.604;2.096;2023-02-13T19:07:41;40.83;;;23.33;;
10511;SDS011;5304;48.604;2.096;2023-02-13T19:10:26;37.70;;;24.63;;
10511;SDS011;5304;48.604;2.096;2023-02-13T19:13:11;40.50;;;24.37;;